NCAR-RAP Real-Time Weather Data

Output produced by METARs form (18 August 2018  01:02 UTC)
found at http://weather.rap.ucar.edu/surface/
 
RJBT 180000Z VRB02KT 9999 FEW030 BKN/// 23/16 Q1013
RJBT 172330Z VRB01KT 9999 FEW030 SCT040 BKN/// 21/20 Q1013
RJBT 170900Z 02007KT 320V090 9999 FEW025 SCT/// 22/17 Q1012
RJBT 170800Z 01007KT 340V050 9999 FEW025 SCT030 23/15 Q1012
RJBT 170700Z 01010KT 330V060 9999 FEW030 SCT035 BKN/// 24/15 Q1012
RJBT 170600Z 02010KT 340V050 9999 FEW030 SCT035 BKN/// 24/14 Q1012
RJBT 170500Z 01011KT 320V050 9999 FEW030 SCT035 BKN/// 24/14 Q1012
RJBT 170400Z 01010KT 310V050 9999 FEW025 SCT035 BKN/// 24/15 Q1012
RJBT 170300Z 02010KT 330V070 9999 FEW025 SCT035 BKN/// 24/15 Q1013
RJBT 170200Z 02009KT 330V070 9999 FEW025 BKN035 24/15 Q1013
RJBT 170100Z 02010KT 300V070 9999 FEW025 BKN035 23/16 Q1013
RJBT 170000Z 03008KT 360V070 9999 FEW025 BKN035 24/16 Q1013
RJBT 162330Z 02007KT 320V050 9999 FEW025 BKN035 23/17 Q1013
RJBT 160900Z VRB02KT 9999 -SHRA FEW003 SCT010 BKN025 23/23 Q1009
RJBT 160800Z 36007KT 310V030 6000 -SHRA FEW005 SCT010 BKN025 23/23 Q1009
RJBT 160700Z 32008KT 270V350 6000 -SHRA FEW008 SCT015 BKN030 26/26 Q1007
RJBT 160600Z 19007KT 150V210 9999 FEW010 SCT030 BKN100 28/28 Q1006
RJBT 160500Z 20009KT 9999 -SHRA FEW015 SCT030 BKN070 28/28 Q1007
RJBT 160400Z 22009KT 190V260 9999 FEW020 SCT030 BKN100 28/28 Q1007
RJBT 160300Z 24004KT 190V290 9999 -SHRA FEW020 SCT030 BKN050 28/28 Q1008
RJBT 160200Z 19006KT 160V230 9999 FEW025 SCT050 BKN100 29/29 Q1008
RJBT 160100Z 16005KT 130V220 9999 FEW025 SCT050 BKN080 30/30 Q1008
RJBT 160000Z 18005KT 140V210 9999 FEW025 SCT050 BKN080 27/27 Q1008
RJBT 152330Z 17006KT 130V220 9999 FEW025 SCT050 BKN080 27/27 Q1008